Sm Busan — 3EIZ8 — position and weather

sailwx.info

Track history (hours):
 
Tides and Currents Weather Stations Pressure Air Temp Water Temp Dewpoint Dewpoint Depression Visibility Wind Speed Wind Dir Waves Ship Positions

Sm Busan

Last reported at 2018-Feb-11 22:21 UTC. Time now 2018-Feb-17 21:52 UTC.
Position N 41°40' E 141°55'.

Length 304 m; draft 12.2 m.

Type: Cargo ship. MMSI: 372445000.

Date/timePositionNaut miles runAvg speedWind from/ knotsBaromVisibWave heightAir tempDewpointWater temp
2018-Feb-11 22:21N 41°40' E 141°55'822.2
2018-Feb-11 22:00N 41°40' E 141°44'1122.5
2018-Feb-11 21:30N 41°40' E 141°29'1122.3
2018-Feb-11 21:00N 41°39' E 141°14'1122.4
2018-Feb-11 20:30N 41°38' E 140°59'1223.7
2018-Feb-11 20:00N 41°34' E 140°44'1223.4
2018-Feb-11 19:30N 41°27' E 140°32'1223.8
2018-Feb-11 19:00N 41°20' E 140°19'  
2018-Feb-08 04:30N 31°05' E 122°34'3913.0
2018-Feb-08 01:28N 31°17' E 121°50'713.5
2018-Feb-08 00:56N 31°20' E 121°42'611.6
2018-Feb-08 00:22N 31°23' E 121°35'1 1.5
2018-Feb-07 23:59N 31°23' E 121°35'0 0.0
2018-Feb-07 23:27N 31°23' E 121°35'0 0.0
2018-Feb-07 22:45N 31°23' E 121°35'0 0.0
2018-Feb-07 22:21N 31°23' E 121°35'0 0.0
2018-Feb-07 21:57N 31°23' E 121°35'0 0.0
2018-Feb-07 21:09N 31°23' E 121°35'0 0.0
2018-Feb-07 09:15N 31°23' E 121°35'0 0.0
2018-Feb-07 08:57N 31°23' E 121°35'0 0.0
2018-Feb-07 08:27N 31°23' E 121°35'0 0.0
2018-Feb-07 07:57N 31°23' E 121°35'0 0.0
2018-Feb-07 07:27N 31°23' E 121°35'0 0.0
2018-Feb-07 06:51N 31°23' E 121°35'0 0.0
2018-Feb-07 06:30N 31°23' E 121°35'0 0.0
2018-Feb-07 05:54N 31°23' E 121°35'0 0.0
2018-Feb-07 05:09N 31°23' E 121°35'0 0.0
2018-Feb-07 04:09N 31°23' E 121°35'0 0.0
2018-Feb-07 03:57N 31°23' E 121°35'0 0.0
2018-Feb-07 03:21N 31°23' E 121°35'0 0.0
2018-Feb-07 02:57N 31°23' E 121°35'0 0.0
2018-Feb-07 02:27N 31°23' E 121°35'0 0.0
2018-Feb-07 01:57N 31°23' E 121°35'0 0.0
2018-Feb-07 01:27N 31°23' E 121°35'0 0.0
2018-Feb-07 00:57N 31°23' E 121°35'0 0.0
2018-Feb-07 00:21N 31°23' E 121°35'0 0.0
2018-Feb-06 23:51N 31°23' E 121°35'0 0.0
2018-Feb-06 23:21N 31°23' E 121°35'0 0.8
2018-Feb-06 23:00N 31°23' E 121°35'1 1.9
2018-Feb-06 22:30N 31°23' E 121°34'0 0.3
2018-Feb-06 22:00N 31°23' E 121°34'0 0.5
2018-Feb-06 21:30N 31°23' E 121°34'3 5.0
2018-Feb-06 20:56N 31°22' E 121°37'511.1
2018-Feb-06 20:30N 31°20' E 121°42'5 9.3
2018-Feb-06 20:00N 31°18' E 121°47'5 9.1
2018-Feb-06 19:30N 31°16' E 121°52'24 9.7
2018-Feb-06 16:58N 31°06' E 122°18'4 9.2
2018-Feb-06 16:30N 31°06' E 122°23'4 7.5
2018-Feb-06 15:59N 31°07' E 122°27'6 8.0
2018-Feb-06 15:17N 31°07' E 122°34'  
Track history (hours):
 
Tides and Currents Weather Stations Pressure Air Temp Water Temp Dewpoint Dewpoint Depression Visibility Wind Speed Wind Dir Waves Ship Positions

Sm Busan

Last reported at 2018-Feb-11 22:21 UTC. Time now 2018-Feb-17 21:52 UTC.
Position N 41°40' E 141°55'.

Length 304 m; draft 12.2 m.

Type: Cargo ship. MMSI: 372445000.

Date/timePositionNaut miles runAvg speedWind from/ knotsBaromVisibWave heightAir tempDewpointWater temp
2018-Feb-11 22:21N 41°40' E 141°55'822.2
2018-Feb-11 22:00N 41°40' E 141°44'1122.5
2018-Feb-11 21:30N 41°40' E 141°29'1122.3
2018-Feb-11 21:00N 41°39' E 141°14'1122.4
2018-Feb-11 20:30N 41°38' E 140°59'1223.7
2018-Feb-11 20:00N 41°34' E 140°44'1223.4
2018-Feb-11 19:30N 41°27' E 140°32'1223.8
2018-Feb-11 19:00N 41°20' E 140°19'  
2018-Feb-08 04:30N 31°05' E 122°34'3913.0
2018-Feb-08 01:28N 31°17' E 121°50'713.5
2018-Feb-08 00:56N 31°20' E 121°42'611.6
2018-Feb-08 00:22N 31°23' E 121°35'1 1.5
2018-Feb-07 23:59N 31°23' E 121°35'0 0.0
2018-Feb-07 23:27N 31°23' E 121°35'0 0.0
2018-Feb-07 22:45N 31°23' E 121°35'0 0.0
2018-Feb-07 22:21N 31°23' E 121°35'0 0.0
2018-Feb-07 21:57N 31°23' E 121°35'0 0.0
2018-Feb-07 21:09N 31°23' E 121°35'0 0.0
2018-Feb-07 09:15N 31°23' E 121°35'0 0.0
2018-Feb-07 08:57N 31°23' E 121°35'0 0.0
2018-Feb-07 08:27N 31°23' E 121°35'0 0.0
2018-Feb-07 07:57N 31°23' E 121°35'0 0.0
2018-Feb-07 07:27N 31°23' E 121°35'0 0.0
2018-Feb-07 06:51N 31°23' E 121°35'0 0.0
2018-Feb-07 06:30N 31°23' E 121°35'0 0.0
2018-Feb-07 05:54N 31°23' E 121°35'0 0.0
2018-Feb-07 05:09N 31°23' E 121°35'0 0.0
2018-Feb-07 04:09N 31°23' E 121°35'0 0.0
2018-Feb-07 03:57N 31°23' E 121°35'0 0.0
2018-Feb-07 03:21N 31°23' E 121°35'0 0.0
2018-Feb-07 02:57N 31°23' E 121°35'0 0.0
2018-Feb-07 02:27N 31°23' E 121°35'0 0.0
2018-Feb-07 01:57N 31°23' E 121°35'0 0.0
2018-Feb-07 01:27N 31°23' E 121°35'0 0.0
2018-Feb-07 00:57N 31°23' E 121°35'0 0.0
2018-Feb-07 00:21N 31°23' E 121°35'0 0.0
2018-Feb-06 23:51N 31°23' E 121°35'0 0.0
2018-Feb-06 23:21N 31°23' E 121°35'0 0.8
2018-Feb-06 23:00N 31°23' E 121°35'1 1.9
2018-Feb-06 22:30N 31°23' E 121°34'0 0.3
2018-Feb-06 22:00N 31°23' E 121°34'0 0.5
2018-Feb-06 21:30N 31°23' E 121°34'3 5.0
2018-Feb-06 20:56N 31°22' E 121°37'511.1
2018-Feb-06 20:30N 31°20' E 121°42'5 9.3
2018-Feb-06 20:00N 31°18' E 121°47'5 9.1
2018-Feb-06 19:30N 31°16' E 121°52'24 9.7
2018-Feb-06 16:58N 31°06' E 122°18'4 9.2
2018-Feb-06 16:30N 31°06' E 122°23'4 7.5
2018-Feb-06 15:59N 31°07' E 122°27'6 8.0
2018-Feb-06 15:17N 31°07' E 122°34'  

Dump ship's entire track history